John Murtha Johnstown Cambria County Airport
KJST : rendu visible

Aérodrome :











RETROUVEZ-NOUS SUR...

 
LOGIN :

S'inscrire | Disclaimer

   EN    FR    IT 

 









Légende :    VFR   VFR Marginal   IFR   IFR Intensif   IFR Très Intensif
Visi : 
Plafond : 
>= 8 km
>= 3000ft
5 à 8 km
1000 à 3000 ft
1500m à 5 km
500 à 1000 ft
800 à 1500m
200 à 500 ft
< 800m
< 200 ft
Symboles :   Orages  Brouillard  Fortes neiges  Fortes précipitations  Vent > 20 kt







- Altitude de l'aérodrome : 2284 ft
- Code IATA : JST


KJST - John Murtha Johnstown Cambria County

DERNIER METAR :
  • 240502Z AUTO 31016KT 10SM SCT011 BKN018 BKN025 19/17 A3002 RMK AO2 T01890167 PNO $

METARs EXPIRÉS :
  • 240454Z AUTO 30010KT 10SM SCT016 19/17 A3002 RMK AO2 SLP151 T01890167 402440144 PNO $
  • 240354Z AUTO 27011G19KT 10SM FEW013 SCT022 BKN030 19/17 A3001 RMK AO2 PK WND 27028/0338 LTG DSNT SW RAB17E54 SLP148 T01940172 PNO $
  • 240254Z AUTO 25011G17KT 10SM BKN017 20/18 A3000 RMK AO2 SLP144 6//// T02000178 50001 PNO $
  • 240235Z AUTO 25009G17KT 10SM SCT019 19/17 A3000 RMK AO2 LTG DSNT NW-E T01940172 PNO $

TAF KJST
Valide du 24 à 05h jusqu'au 25 à 00h UTC


240435Z 2405/2424 27011G19KT P6SM FEW013 SCT022 BKN030
FM241100 30010KT P6SM OVC025
FM241400 30012G20KT P6SM SCT050
FIR KZOB / Amérique du Nord



MET'MAP, la Météo Aéronautique d'un coup d'oeil ! - Copyright ORBIFLY Décembre 2007 - Disclaimer

ORBIFLY MET'MAP TEAM :

Programmation & Développement : Alexandra Zaïnal
Conception & Développement : Baudouin d'Aumeries
Co-Programmation & Développement : Marc-Olivier Méhu
Soutien technique & logistique : Manuel Goepfert

Contact : metmap@orbifly.com




SOURCES & CREDITS :

   NOAA       Earth
Advisory